Time;durP1;ratioP1;P1;durP2;ratioP2;P2;SDS_P1;SDS_P2;PMS_P1;PMS_P2;Temp;Humidity;BMP_temperature;BMP_pressure;BME280_temperature;BME280_humidity;BME280_pressure;Samples;Min_cycle;Max_cycle;Signal;HPM_P1;HPM_P2
2020/12/21 00:00:24;;;;;;;21.07;3.87;;;;;;;;;;4913092;29;20713;-85
2020/12/21 00:02:50;;;;;;;19.07;3.10;;;;;;;;;;4913142;29;20030;-84
2020/12/21 00:05:15;;;;;;;13.13;2.97;;;;;;;;;;4936468;29;20019;-85
2020/12/21 00:07:40;;;;;;;17.57;3.33;;;;;;;;;;4919813;29;20019;-84
2020/12/21 00:10:06;;;;;;;14.37;3.60;;;;;;;;;;4917191;29;20123;-85
2020/12/21 00:12:32;;;;;;;11.23;3.00;;;;;;;;;;4934866;29;20066;-85
2020/12/21 00:14:57;;;;;;;17.40;3.37;;;;;;;;;;4917666;29;20023;-85
2020/12/21 00:17:22;;;;;;;15.27;2.93;;;;;;;;;;4933872;29;20023;-85
2020/12/21 00:19:48;;;;;;;15.87;3.00;;;;;;;;;;4934506;29;20087;-85
2020/12/21 00:22:15;;;;;;;15.70;2.90;;;;;;;;;;4917192;29;20122;-84
2020/12/21 00:24:40;;;;;;;12.37;2.47;;;;;;;;;;4917197;29;20072;-85
2020/12/21 00:27:06;;;;;;;15.00;3.57;;;;;;;;;;4912775;29;20111;-84
2020/12/21 00:29:31;;;;;;;13.83;3.50;;;;;;;;;;4915500;29;20035;-84
2020/12/21 00:31:56;;;;;;;14.40;2.83;;;;;;;;;;4935757;29;20024;-84
2020/12/21 00:34:22;;;;;;;15.87;3.03;;;;;;;;;;4935184;29;20336;-85
2020/12/21 00:36:49;;;;;;;15.13;2.40;;;;;;;;;;4911361;29;20023;-84
2020/12/21 00:39:15;;;;;;;17.43;3.10;;;;;;;;;;4903185;29;20024;-84
2020/12/21 00:41:41;;;;;;;17.67;3.23;;;;;;;;;;4918553;29;20106;-84
2020/12/21 00:44:06;;;;;;;12.13;3.23;;;;;;;;;;4918898;29;20030;-85
2020/12/21 00:46:32;;;;;;;18.27;3.03;;;;;;;;;;4914608;29;20023;-85
2020/12/21 00:48:58;;;;;;;13.53;3.00;;;;;;;;;;4927210;29;20034;-85
2020/12/21 00:51:23;;;;;;;16.63;3.50;;;;;;;;;;4935938;29;20019;-84
2020/12/21 00:53:49;;;;;;;16.53;3.23;;;;;;;;;;4936463;29;20034;-84
2020/12/21 00:56:15;;;;;;;10.83;2.70;;;;;;;;;;4918585;29;20024;-85
2020/12/21 00:58:40;;;;;;;15.00;2.70;;;;;;;;;;4918761;29;20178;-85
2020/12/21 01:01:08;;;;;;;15.63;3.63;;;;;;;;;;4935565;29;20110;-85
2020/12/21 01:03:33;;;;;;;14.33;2.70;;;;;;;;;;4935813;29;20027;-84
2020/12/21 01:05:59;;;;;;;9.17;2.27;;;;;;;;;;4918110;29;20024;-84
2020/12/21 01:08:24;;;;;;;11.60;2.80;;;;;;;;;;4935841;29;20703;-85
2020/12/21 01:10:49;;;;;;;13.10;2.57;;;;;;;;;;4918515;29;20183;-84
2020/12/21 01:13:14;;;;;;;13.20;2.37;;;;;;;;;;4935652;29;20118;-84
2020/12/21 01:15:40;;;;;;;13.50;2.10;;;;;;;;;;4916190;29;20032;-84
2020/12/21 01:18:05;;;;;;;12.10;2.60;;;;;;;;;;4916234;29;20440;-84
2020/12/21 01:20:30;;;;;;;10.87;2.10;;;;;;;;;;4902050;29;20028;-84
2020/12/21 01:22:56;;;;;;;15.43;2.27;;;;;;;;;;4933011;29;20020;-84
2020/12/21 01:25:21;;;;;;;13.83;2.60;;;;;;;;;;4915342;29;20023;-84
2020/12/21 01:27:46;;;;;;;19.80;2.83;;;;;;;;;;4915495;29;20452;-84
2020/12/21 01:30:11;;;;;;;10.97;3.20;;;;;;;;;;4932026;29;20031;-84
2020/12/21 01:32:37;;;;;;;13.00;2.93;;;;;;;;;;4915941;29;20024;-84
2020/12/21 01:35:02;;;;;;;17.23;2.77;;;;;;;;;;4932766;29;20079;-84
2020/12/21 01:37:28;;;;;;;14.57;2.40;;;;;;;;;;4915898;29;20077;-84
2020/12/21 01:39:53;;;;;;;7.87;2.33;;;;;;;;;;4910148;29;20111;-84
2020/12/21 01:42:18;;;;;;;23.77;2.80;;;;;;;;;;4905852;29;20119;-84
2020/12/21 01:44:44;;;;;;;16.77;2.40;;;;;;;;;;4915507;29;20024;-84
2020/12/21 01:47:10;;;;;;;9.20;2.40;;;;;;;;;;4917590;29;20030;-85
2020/12/21 01:49:36;;;;;;;16.77;2.57;;;;;;;;;;4917074;29;20098;-84
2020/12/21 01:52:01;;;;;;;18.70;2.97;;;;;;;;;;4918256;29;20024;-84
2020/12/21 01:54:26;;;;;;;15.70;2.53;;;;;;;;;;4934925;29;20142;-84
2020/12/21 01:56:52;;;;;;;10.53;2.03;;;;;;;;;;4934705;29;20012;-84
2020/12/21 01:59:18;;;;;;;16.23;2.30;;;;;;;;;;4916854;29;20019;-84
2020/12/21 02:01:44;;;;;;;14.90;2.80;;;;;;;;;;4916571;29;20102;-84
2020/12/21 02:04:09;;;;;;;10.63;2.47;;;;;;;;;;4935201;29;20036;-83
2020/12/21 02:06:35;;;;;;;18.70;2.67;;;;;;;;;;4934366;29;20436;-84
2020/12/21 02:09:00;;;;;;;11.93;2.23;;;;;;;;;;4917622;29;20028;-83
2020/12/21 02:11:25;;;;;;;11.07;2.27;;;;;;;;;;4935184;29;20170;-84
2020/12/21 02:13:50;;;;;;;8.90;1.63;;;;;;;;;;4934417;29;20030;-84
2020/12/21 02:16:16;;;;;;;12.20;1.90;;;;;;;;;;4917133;29;20027;-85
2020/12/21 02:18:41;;;;;;;10.90;1.90;;;;;;;;;;4933978;29;20020;-84
2020/12/21 02:21:06;;;;;;;10.77;2.10;;;;;;;;;;4916273;29;20051;-84
2020/12/21 02:23:31;;;;;;;15.23;2.57;;;;;;;;;;4934367;29;20023;-84
2020/12/21 02:25:57;;;;;;;7.13;1.80;;;;;;;;;;4917164;29;20030;-85
2020/12/21 02:28:22;;;;;;;11.82;2.10;;;;;;;;;;4917433;29;20015;-85
2020/12/21 02:30:47;;;;;;;11.00;2.40;;;;;;;;;;4934073;29;20019;-85
2020/12/21 02:33:12;;;;;;;9.45;1.90;;;;;;;;;;4934117;29;20043;-84
2020/12/21 02:35:37;;;;;;;9.63;1.98;;;;;;;;;;4916666;29;20027;-84
2020/12/21 02:38:07;;;;;;;13.02;2.00;;;;;;;;;;4916874;29;20356;-85
2020/12/21 02:40:32;;;;;;;12.63;2.03;;;;;;;;;;4916780;29;20657;-84
2020/12/21 02:42:57;;;;;;;8.00;1.88;;;;;;;;;;4933779;29;20026;-85
2020/12/21 02:45:23;;;;;;;7.47;1.83;;;;;;;;;;4916544;29;20071;-85
2020/12/21 02:47:48;;;;;;;13.05;2.50;;;;;;;;;;4933964;29;20094;-84
2020/12/21 02:50:13;;;;;;;12.90;2.33;;;;;;;;;;4916776;29;20699;-84
2020/12/21 02:52:38;;;;;;;12.83;2.33;;;;;;;;;;4934318;29;20028;-84
2020/12/21 02:55:04;;;;;;;14.00;2.30;;;;;;;;;;4933786;29;20495;-85
2020/12/21 02:57:29;;;;;;;9.60;2.27;;;;;;;;;;4919040;29;20023;-85
2020/12/21 02:59:54;;;;;;;8.67;2.10;;;;;;;;;;4920840;29;20534;-84
2020/12/21 03:02:19;;;;;;;8.43;2.13;;;;;;;;;;4929183;29;20059;-84
2020/12/21 03:04:45;;;;;;;7.50;2.30;;;;;;;;;;4932848;29;20015;-84
2020/12/21 03:07:10;;;;;;;10.97;1.93;;;;;;;;;;4920970;29;20012;-85
2020/12/21 03:09:35;;;;;;;12.53;2.37;;;;;;;;;;4920321;29;20502;-84
2020/12/21 03:12:00;;;;;;;14.93;2.37;;;;;;;;;;4937774;29;20428;-84
2020/12/21 03:14:25;;;;;;;13.27;2.43;;;;;;;;;;4920747;29;20043;-84
2020/12/21 03:16:51;;;;;;;10.03;2.17;;;;;;;;;;4920333;29;20024;-85
2020/12/21 03:19:18;;;;;;;9.70;2.40;;;;;;;;;;4920128;29;20047;-84
2020/12/21 03:21:43;;;;;;;15.70;2.00;;;;;;;;;;4937598;29;20028;-84
2020/12/21 03:24:09;;;;;;;11.57;2.60;;;;;;;;;;4919566;29;20368;-84
2020/12/21 03:26:34;;;;;;;15.03;2.40;;;;;;;;;;4937126;29;20023;-84
2020/12/21 03:29:00;;;;;;;8.30;2.37;;;;;;;;;;4920194;29;20200;-84
2020/12/21 03:31:25;;;;;;;10.53;1.87;;;;;;;;;;4920212;29;20167;-84
2020/12/21 03:33:50;;;;;;;12.33;2.10;;;;;;;;;;4919723;29;20032;-84
2020/12/21 03:36:15;;;;;;;8.40;1.90;;;;;;;;;;4919701;29;20026;-84
2020/12/21 03:38:41;;;;;;;12.87;2.30;;;;;;;;;;4919910;29;20490;-84
2020/12/21 03:41:06;;;;;;;7.00;1.90;;;;;;;;;;4920097;29;20466;-84
2020/12/21 03:43:31;;;;;;;8.05;2.05;;;;;;;;;;4919959;29;20145;-84
2020/12/21 03:45:56;;;;;;;9.73;1.93;;;;;;;;;;4920179;29;20436;-84
2020/12/21 03:48:21;;;;;;;8.50;1.73;;;;;;;;;;4919450;29;20114;-84
2020/12/21 03:50:47;;;;;;;5.88;1.83;;;;;;;;;;4919570;29;20023;-84
2020/12/21 03:53:12;;;;;;;10.95;1.98;;;;;;;;;;4919980;29;20206;-84
2020/12/21 03:55:37;;;;;;;7.47;2.05;;;;;;;;;;4936690;29;20020;-84
2020/12/21 03:58:02;;;;;;;6.10;1.95;;;;;;;;;;4919065;29;20471;-84
2020/12/21 04:00:27;;;;;;;14.83;2.17;;;;;;;;;;4919309;29;20060;-84
2020/12/21 04:02:53;;;;;;;10.57;1.83;;;;;;;;;;4919619;29;20027;-83
2020/12/21 04:05:18;;;;;;;12.60;2.23;;;;;;;;;;4919096;29;20030;-84
2020/12/21 04:07:43;;;;;;;12.10;2.17;;;;;;;;;;4936477;29;20030;-84
2020/12/21 04:10:08;;;;;;;9.60;1.83;;;;;;;;;;4936670;29;20046;-85
2020/12/21 04:12:34;;;;;;;14.98;2.00;;;;;;;;;;4936743;29;20024;-84
2020/12/21 04:15:00;;;;;;;6.63;1.90;;;;;;;;;;4936407;29;20447;-84
2020/12/21 04:17:25;;;;;;;8.73;1.83;;;;;;;;;;4919195;29;20023;-84
2020/12/21 04:19:50;;;;;;;7.03;2.08;;;;;;;;;;4936435;29;20036;-84
2020/12/21 04:22:15;;;;;;;8.35;1.67;;;;;;;;;;4936214;29;20016;-84
2020/12/21 04:24:41;;;;;;;9.68;2.30;;;;;;;;;;4935943;29;20102;-84
2020/12/21 04:27:06;;;;;;;12.77;2.20;;;;;;;;;;4908288;29;20102;-84
2020/12/21 04:29:31;;;;;;;15.47;2.37;;;;;;;;;;4909721;29;20106;-84
2020/12/21 04:31:56;;;;;;;12.23;2.25;;;;;;;;;;4914469;29;20031;-83
2020/12/21 04:34:25;;;;;;;7.78;1.75;;;;;;;;;;4918895;29;20023;-84
2020/12/21 04:36:51;;;;;;;8.90;2.08;;;;;;;;;;4919040;29;20110;-84
2020/12/21 04:39:16;;;;;;;11.48;3.00;;;;;;;;;;4918919;29;20050;-85
2020/12/21 04:41:41;;;;;;;15.65;2.20;;;;;;;;;;4919034;29;20384;-84
2020/12/21 04:44:07;;;;;;;9.93;2.22;;;;;;;;;;4918764;29;20016;-84
2020/12/21 04:46:32;;;;;;;7.13;1.92;;;;;;;;;;4918450;29;20024;-84
2020/12/21 04:49:01;;;;;;;11.10;2.17;;;;;;;;;;4935725;29;20447;-84
2020/12/21 04:51:32;;;;;;;8.55;1.60;;;;;;;;;;4918419;29;20019;-84
2020/12/21 04:53:57;;;;;;;6.22;1.73;;;;;;;;;;4918436;29;20079;-84
2020/12/21 04:56:23;;;;;;;9.23;2.08;;;;;;;;;;4918115;29;20024;-84
2020/12/21 04:58:48;;;;;;;11.88;2.88;;;;;;;;;;4935883;29;20423;-84
2020/12/21 05:01:13;;;;;;;10.60;2.10;;;;;;;;;;4935305;29;20023;-83
2020/12/21 05:03:38;;;;;;;8.00;2.15;;;;;;;;;;4918763;29;20058;-85
2020/12/21 05:06:07;;;;;;;8.55;1.77;;;;;;;;;;4917859;29;20107;-84
2020/12/21 05:08:32;;;;;;;10.80;3.00;;;;;;;;;;4935499;29;20099;-84
2020/12/21 05:10:59;;;;;;;13.55;3.75;;;;;;;;;;4935421;29;20110;-84
2020/12/21 05:13:24;;;;;;;12.43;2.80;;;;;;;;;;4935587;29;20136;-84
2020/12/21 05:15:50;;;;;;;8.07;2.80;;;;;;;;;;4918194;29;20061;-84
2020/12/21 05:18:15;;;;;;;13.63;2.90;;;;;;;;;;4901776;29;20032;-84
2020/12/21 05:20:41;;;;;;;9.07;2.47;;;;;;;;;;4925558;29;20379;-84
2020/12/21 05:23:15;;;;;;;17.48;3.05;;;;;;;;;;4918188;29;20450;-84
2020/12/21 05:25:40;;;;;;;11.38;2.75;;;;;;;;;;4934903;29;20019;-84
2020/12/21 05:28:12;;;;;;;15.30;2.80;;;;;;;;;;4934673;29;20526;-84
2020/12/21 05:30:49;;;;;;;10.80;2.33;;;;;;;;;;4918066;29;20030;-84
2020/12/21 05:33:14;;;;;;;8.57;2.22;;;;;;;;;;4918144;29;20047;-83
2020/12/21 05:35:40;;;;;;;15.73;3.15;;;;;;;;;;4917908;29;20035;-84
2020/12/21 05:38:05;;;;;;;9.88;2.40;;;;;;;;;;4918392;29;20336;-84
2020/12/21 05:40:30;;;;;;;8.68;2.70;;;;;;;;;;4935105;29;20028;-85
2020/12/21 05:42:55;;;;;;;13.45;2.33;;;;;;;;;;4917749;29;20075;-84
2020/12/21 05:45:20;;;;;;;9.15;2.47;;;;;;;;;;4917515;29;20500;-84
2020/12/21 05:47:47;;;;;;;13.95;2.40;;;;;;;;;;4935083;29;20020;-84
2020/12/21 05:50:18;;;;;;;9.95;2.65;;;;;;;;;;4917314;29;20078;-84
2020/12/21 05:52:44;;;;;;;13.23;2.40;;;;;;;;;;4934971;29;20075;-84
2020/12/21 05:55:10;;;;;;;5.85;1.85;;;;;;;;;;4917774;29;20066;-84
2020/12/21 05:57:36;;;;;;;10.93;2.58;;;;;;;;;;4917699;29;20063;-84
2020/12/21 06:00:02;;;;;;;10.82;2.50;;;;;;;;;;4918004;29;20020;-84
2020/12/21 06:02:30;;;;;;;14.20;2.30;;;;;;;;;;4904133;29;20498;-84
2020/12/21 06:05:14;;;;;;;6.53;2.00;;;;;;;;;;4916670;29;20382;-84
2020/12/21 06:07:48;;;;;;;13.05;2.85;;;;;;;;;;4916829;29;20028;-84
2020/12/21 06:10:13;;;;;;;8.32;2.20;;;;;;;;;;4920443;29;20019;-84
2020/12/21 06:12:48;;;;;;;14.77;3.70;;;;;;;;;;4922201;29;20094;-85
2020/12/21 06:15:19;;;;;;;8.20;2.33;;;;;;;;;;4903972;29;20015;-84
2020/12/21 06:17:44;;;;;;;10.98;2.50;;;;;;;;;;4917386;29;20094;-85
2020/12/21 06:20:10;;;;;;;15.00;2.63;;;;;;;;;;4916374;29;20502;-84
2020/12/21 06:22:36;;;;;;;15.00;2.63;;;;;;;;;;4934209;29;20039;-84
2020/12/21 06:25:03;;;;;;;5.80;1.77;;;;;;;;;;4903903;29;20650;-85
2020/12/21 06:27:36;;;;;;;7.15;2.30;;;;;;;;;;4916888;29;20027;-84
2020/12/21 06:30:01;;;;;;;10.30;2.15;;;;;;;;;;4917102;29;20047;-84
2020/12/21 06:32:31;;;;;;;7.57;1.83;;;;;;;;;;4908974;29;20512;-84
2020/12/21 06:34:56;;;;;;;8.32;2.30;;;;;;;;;;4911570;29;20024;-83
2020/12/21 06:37:21;;;;;;;8.70;1.70;;;;;;;;;;4934141;29;20018;-84
2020/12/21 06:40:07;;;;;;;12.98;2.17;;;;;;;;;;4917089;29;20027;-84
2020/12/21 06:42:32;;;;;;;7.25;2.22;;;;;;;;;;4920037;29;20036;-84
2020/12/21 06:44:58;;;;;;;10.57;2.00;;;;;;;;;;4933573;29;20407;-84
2020/12/21 06:47:24;;;;;;;11.25;2.08;;;;;;;;;;4916505;29;20493;-84
2020/12/21 06:49:49;;;;;;;6.30;2.28;;;;;;;;;;4933991;29;20024;-84
2020/12/21 06:52:15;;;;;;;9.10;2.28;;;;;;;;;;4917360;29;20011;-84
2020/12/21 06:54:40;;;;;;;12.75;2.63;;;;;;;;;;4917214;29;20024;-84
2020/12/21 06:57:05;;;;;;;6.72;2.03;;;;;;;;;;4934070;29;20020;-84
2020/12/21 06:59:30;;;;;;;15.48;2.53;;;;;;;;;;4916512;29;20023;-84
2020/12/21 07:01:56;;;;;;;9.02;1.90;;;;;;;;;;4916614;29;20031;-85
2020/12/21 07:04:30;;;;;;;8.52;1.90;;;;;;;;;;4933801;29;20028;-84
2020/12/21 07:06:56;;;;;;;7.68;2.30;;;;;;;;;;4916979;29;20408;-84
2020/12/21 07:09:26;;;;;;;9.38;1.95;;;;;;;;;;4933456;29;20031;-84
2020/12/21 07:11:55;;;;;;;7.00;2.45;;;;;;;;;;4933982;29;20706;-84
2020/12/21 07:14:21;;;;;;;6.35;2.30;;;;;;;;;;4916359;29;20028;-84
2020/12/21 07:16:46;;;;;;;9.90;2.00;;;;;;;;;;4933426;29;20731;-85
2020/12/21 07:19:11;;;;;;;7.05;2.17;;;;;;;;;;4916783;29;20064;-85
2020/12/21 07:21:36;;;;;;;7.30;2.10;;;;;;;;;;4901859;29;20356;-84
2020/12/21 07:24:01;;;;;;;10.55;2.33;;;;;;;;;;4916136;29;20190;-84
2020/12/21 07:26:27;;;;;;;15.60;2.78;;;;;;;;;;4916042;29;20020;-84
2020/12/21 07:28:52;;;;;;;10.40;2.20;;;;;;;;;;4915345;29;20118;-84
2020/12/21 07:31:18;;;;;;;9.38;2.47;;;;;;;;;;4915460;29;20036;-84
2020/12/21 07:33:48;;;;;;;9.30;2.22;;;;;;;;;;4914207;29;20459;-84
2020/12/21 07:36:13;;;;;;;7.35;2.17;;;;;;;;;;4910179;29;20450;-84
2020/12/21 07:38:38;;;;;;;7.82;2.00;;;;;;;;;;4911692;29;20055;-83
2020/12/21 07:41:03;;;;;;;10.43;2.90;;;;;;;;;;4914846;29;20423;-84
2020/12/21 07:43:33;;;;;;;7.78;2.30;;;;;;;;;;4913617;29;20027;-84
2020/12/21 07:46:02;;;;;;;12.52;2.42;;;;;;;;;;4918650;29;20111;-84
2020/12/21 07:48:29;;;;;;;9.45;2.13;;;;;;;;;;4928985;29;20019;-84
2020/12/21 07:50:54;;;;;;;12.25;2.95;;;;;;;;;;4915435;29;20046;-84
2020/12/21 07:53:19;;;;;;;9.27;2.20;;;;;;;;;;4913898;29;20027;-83
2020/12/21 07:55:57;;;;;;;6.20;2.08;;;;;;;;;;4908098;29;20027;-84
2020/12/21 07:58:22;;;;;;;12.05;2.15;;;;;;;;;;4916952;29;20019;-84
2020/12/21 08:00:55;;;;;;;9.32;2.20;;;;;;;;;;4915483;29;20067;-84
2020/12/21 08:03:20;;;;;;;;;;;;;;;;;;4912851;29;20024;-84
2020/12/21 08:05:46;;;;;;;8.65;1.73;;;;;;;;;;4932808;29;19911;-83
2020/12/21 08:08:12;;;;;;;7.05;2.17;;;;;;;;;;4908808;29;20019;-84
2020/12/21 08:10:37;;;;;;;8.77;2.00;;;;;;;;;;4919606;29;20032;-81
2020/12/21 08:13:02;;;;;;;6.78;1.88;;;;;;;;;;4920455;29;20407;-84
2020/12/21 08:15:27;;;;;;;11.68;2.40;;;;;;;;;;4934894;29;20024;-82
2020/12/21 08:17:53;;;;;;;8.48;1.40;;;;;;;;;;4918851;29;20039;-82
2020/12/21 08:20:19;;;;;;;9.40;2.42;;;;;;;;;;4919226;29;20083;-84
2020/12/21 08:22:44;;;;;;;7.07;1.73;;;;;;;;;;4935541;29;20039;-83
2020/12/21 08:25:11;;;;;;;10.88;2.20;;;;;;;;;;4934924;29;20024;-83
2020/12/21 08:27:56;;;;;;;6.57;1.35;;;;;;;;;;4916360;29;20028;-83
2020/12/21 08:30:22;;;;;;;7.70;2.05;;;;;;;;;;4936823;29;20039;-83
2020/12/21 08:32:48;;;;;;;5.57;1.85;;;;;;;;;;4917986;29;20092;-82
2020/12/21 08:35:13;;;;;;;11.60;2.05;;;;;;;;;;4918263;29;20444;-82
2020/12/21 08:37:39;;;;;;;10.80;1.95;;;;;;;;;;4933491;29;20135;-82
2020/12/21 08:40:11;;;;;;;7.22;1.92;;;;;;;;;;4920392;29;20356;-83
2020/12/21 08:42:36;;;;;;;4.10;1.65;;;;;;;;;;4918344;29;20118;-83
2020/12/21 08:45:02;;;;;;;7.80;1.75;;;;;;;;;;4918626;29;20107;-84
2020/12/21 08:47:27;;;;;;;7.10;2.03;;;;;;;;;;4914033;29;20075;-82
2020/12/21 08:49:52;;;;;;;5.97;2.00;;;;;;;;;;4910547;29;20016;-82
2020/12/21 08:52:18;;;;;;;8.30;2.05;;;;;;;;;;4923956;29;20376;-82
2020/12/21 08:54:43;;;;;;;6.28;1.95;;;;;;;;;;4933459;29;20058;-82
2020/12/21 08:57:08;;;;;;;9.57;1.85;;;;;;;;;;4918996;29;20146;-83
2020/12/21 08:59:33;;;;;;;11.38;2.20;;;;;;;;;;4934765;29;20023;-84
2020/12/21 09:01:59;;;;;;;8.93;2.10;;;;;;;;;;4916405;29;20027;-83
2020/12/21 09:04:24;;;;;;;4.90;1.88;;;;;;;;;;4916973;29;20032;-83
2020/12/21 09:06:49;;;;;;;10.25;1.98;;;;;;;;;;4913223;29;20751;-82
2020/12/21 09:09:14;;;;;;;10.57;2.00;;;;;;;;;;4933033;29;20055;-82
2020/12/21 09:11:39;;;;;;;4.70;1.63;;;;;;;;;;4933235;29;20082;-82
2020/12/21 09:14:05;;;;;;;7.32;2.10;;;;;;;;;;4915639;29;20027;-82
2020/12/21 09:16:30;;;;;;;13.02;2.58;;;;;;;;;;4923373;29;21106;-83
2020/12/21 09:18:57;;;;;;;5.03;1.42;;;;;;;;;;4935101;29;20031;-82
2020/12/21 09:21:26;;;;;;;6.13;1.75;;;;;;;;;;4934037;29;20028;-84
2020/12/21 09:23:52;;;;;;;5.30;1.75;;;;;;;;;;4921330;29;20034;-83
2020/12/21 09:26:17;;;;;;;8.18;2.10;;;;;;;;;;4916087;29;20028;-82
2020/12/21 09:28:43;;;;;;;9.05;1.92;;;;;;;;;;4917251;29;20024;-83
2020/12/21 09:31:12;;;;;;;9.27;1.85;;;;;;;;;;4934177;29;20032;-83
2020/12/21 09:33:38;;;;;;;6.72;1.98;;;;;;;;;;4932342;29;20047;-83
2020/12/21 09:36:03;;;;;;;7.95;1.75;;;;;;;;;;4917295;29;20058;-83
2020/12/21 09:38:28;;;;;;;7.35;1.77;;;;;;;;;;4930205;29;20020;-82
2020/12/21 09:40:53;;;;;;;5.95;1.33;;;;;;;;;;4907301;29;20036;-84
2020/12/21 09:43:18;;;;;;;13.35;2.55;;;;;;;;;;4933099;29;20023;-83
2020/12/21 09:45:44;;;;;;;11.38;1.80;;;;;;;;;;4916064;29;20114;-83
2020/12/21 09:48:09;;;;;;;6.00;1.65;;;;;;;;;;4933489;29;20063;-83
2020/12/21 09:50:34;;;;;;;4.47;1.42;;;;;;;;;;4922653;29;20082;-83
2020/12/21 09:52:59;;;;;;;9.85;1.80;;;;;;;;;;4923481;29;20039;-83
2020/12/21 09:55:25;;;;;;;8.30;1.58;;;;;;;;;;4919085;29;20027;-84
2020/12/21 09:57:50;;;;;;;6.15;1.45;;;;;;;;;;4911151;29;20027;-83
2020/12/21 10:00:15;;;;;;;7.32;2.00;;;;;;;;;;4916424;29;20031;-83
2020/12/21 10:02:41;;;;;;;11.45;1.85;;;;;;;;;;4919300;29;20122;-83
2020/12/21 10:05:06;;;;;;;8.40;1.63;;;;;;;;;;4934276;29;20020;-83
2020/12/21 10:07:32;;;;;;;6.53;1.65;;;;;;;;;;4918887;29;20031;-83
2020/12/21 10:09:57;;;;;;;5.13;1.23;;;;;;;;;;4918434;29;20015;-82
2020/12/21 10:12:22;;;;;;;6.55;1.55;;;;;;;;;;4934140;29;20045;-82
2020/12/21 10:14:47;;;;;;;6.10;1.30;;;;;;;;;;4916423;29;20407;-83
2020/12/21 10:17:12;;;;;;;6.90;1.30;;;;;;;;;;4932324;29;20012;-83
2020/12/21 10:19:38;;;;;;;5.25;1.25;;;;;;;;;;4933507;29;20475;-85
2020/12/21 10:22:03;;;;;;;2.42;1.10;;;;;;;;;;4916508;29;20019;-85
2020/12/21 10:24:28;;;;;;;6.93;1.48;;;;;;;;;;4920865;29;20108;-83
2020/12/21 10:26:53;;;;;;;4.93;1.23;;;;;;;;;;4917827;29;20758;-83
2020/12/21 10:29:18;;;;;;;2.38;0.90;;;;;;;;;;4917798;29;20027;-83
2020/12/21 10:31:44;;;;;;;5.72;1.30;;;;;;;;;;4934021;29;20074;-82
2020/12/21 10:34:09;;;;;;;4.22;1.00;;;;;;;;;;4915752;29;20035;-84
2020/12/21 10:36:34;;;;;;;3.20;0.75;;;;;;;;;;4921285;29;20075;-83
2020/12/21 10:38:59;;;;;;;5.22;1.10;;;;;;;;;;4912011;29;20058;-85
2020/12/21 10:41:29;;;;;;;3.78;0.90;;;;;;;;;;4914250;29;20034;-84
2020/12/21 10:43:55;;;;;;;4.82;1.20;;;;;;;;;;4913596;29;20131;-83
2020/12/21 10:46:20;;;;;;;4.75;1.00;;;;;;;;;;4930628;29;20102;-84
2020/12/21 10:48:46;;;;;;;3.72;0.90;;;;;;;;;;4930667;29;20027;-83
2020/12/21 10:51:11;;;;;;;3.35;0.70;;;;;;;;;;4923524;29;20054;-85
2020/12/21 10:53:36;;;;;;;3.85;0.90;;;;;;;;;;4916469;29;20032;-83
2020/12/21 10:56:02;;;;;;;1.35;0.70;;;;;;;;;;4915300;29;20036;-84
2020/12/21 10:58:27;;;;;;;3.88;1.00;;;;;;;;;;4932480;29;20028;-82
2020/12/21 11:00:52;;;;;;;2.35;0.82;;;;;;;;;;4932222;29;20032;-82
2020/12/21 11:03:17;;;;;;;5.20;1.27;;;;;;;;;;4936064;29;20087;-82
2020/12/21 11:05:42;;;;;;;4.20;1.25;;;;;;;;;;4932809;29;20134;-83
2020/12/21 11:08:07;;;;;;;3.63;0.75;;;;;;;;;;4933430;29;20490;-82
2020/12/21 11:10:33;;;;;;;4.72;0.90;;;;;;;;;;4910965;29;20039;-82
2020/12/21 11:12:58;;;;;;;4.10;0.95;;;;;;;;;;4916039;29;20165;-81
2020/12/21 11:15:23;;;;;;;5.07;0.90;;;;;;;;;;4916342;29;20757;-81
2020/12/21 11:17:49;;;;;;;2.42;0.73;;;;;;;;;;4907958;29;20083;-81
2020/12/21 11:20:14;;;;;;;6.22;0.95;;;;;;;;;;4918770;29;20130;-82
2020/12/21 11:22:42;;;;;;;3.63;1.05;;;;;;;;;;4920057;29;20028;-82
2020/12/21 11:25:07;;;;;;;3.10;1.00;;;;;;;;;;4916450;29;20023;-83
2020/12/21 11:27:32;;;;;;;1.85;1.00;;;;;;;;;;4915415;29;20034;-81
2020/12/21 11:29:57;;;;;;;2.88;0.90;;;;;;;;;;4918537;29;20030;-84
2020/12/21 11:32:23;;;;;;;5.65;0.80;;;;;;;;;;4919607;29;20023;-83
2020/12/21 11:34:48;;;;;;;2.15;0.98;;;;;;;;;;4920486;29;20058;-83
2020/12/21 11:37:13;;;;;;;6.05;0.90;;;;;;;;;;4916144;29;20048;-83
2020/12/21 11:39:38;;;;;;;1.58;0.73;;;;;;;;;;4936039;29;20114;-83
2020/12/21 11:42:06;;;;;;;3.90;0.95;;;;;;;;;;4918040;29;20490;-84
2020/12/21 11:44:31;;;;;;;3.63;0.80;;;;;;;;;;4923861;29;20135;-83
2020/12/21 11:46:57;;;;;;;2.33;0.70;;;;;;;;;;4932500;29;20103;-83
2020/12/21 11:49:22;;;;;;;3.45;0.70;;;;;;;;;;4904478;29;20371;-83
2020/12/21 11:51:47;;;;;;;2.15;0.60;;;;;;;;;;4930093;29;20082;-82
2020/12/21 11:54:12;;;;;;;2.88;0.80;;;;;;;;;;4919961;29;20028;-82
2020/12/21 11:56:37;;;;;;;3.03;0.70;;;;;;;;;;4919999;29;20055;-82
2020/12/21 11:59:03;;;;;;;2.33;0.77;;;;;;;;;;4919536;29;20098;-83
2020/12/21 12:01:28;;;;;;;3.15;0.70;;;;;;;;;;4919046;29;20078;-82
2020/12/21 12:03:53;;;;;;;1.60;0.70;;;;;;;;;;4919553;29;20024;-82
2020/12/21 12:06:24;;;;;;;2.35;0.60;;;;;;;;;;4936004;29;20411;-83
2020/12/21 12:08:50;;;;;;;1.98;0.70;;;;;;;;;;4935122;29;20067;-82
2020/12/21 12:11:22;;;;;;;7.00;0.65;;;;;;;;;;4922726;29;20075;-83
2020/12/21 12:13:47;;;;;;;1.20;0.38;;;;;;;;;;4926038;29;20027;-83
2020/12/21 12:16:17;;;;;;;3.60;0.80;;;;;;;;;;4915370;29;20031;-82
2020/12/21 12:18:43;;;;;;;4.30;0.63;;;;;;;;;;4915539;29;20028;-82
2020/12/21 12:21:08;;;;;;;2.08;0.57;;;;;;;;;;4918713;29;20812;-82
2020/12/21 12:23:33;;;;;;;3.53;0.70;;;;;;;;;;4933907;29;20019;-84
2020/12/21 12:25:59;;;;;;;1.52;0.57;;;;;;;;;;4938526;29;20486;-85
2020/12/21 12:28:24;;;;;;;1.40;0.65;;;;;;;;;;4924034;29;20161;-85
2020/12/21 12:30:49;;;;;;;2.30;0.68;;;;;;;;;;4915902;29;20515;-86
2020/12/21 12:33:14;;;;;;;3.60;0.80;;;;;;;;;;4941942;29;20034;-84
2020/12/21 12:35:39;;;;;;;1.92;0.50;;;;;;;;;;4939179;29;20027;-85
2020/12/21 12:38:04;;;;;;;2.53;0.40;;;;;;;;;;4919006;29;20031;-85
2020/12/21 12:40:30;;;;;;;3.90;0.95;;;;;;;;;;4931613;29;20094;-85
2020/12/21 12:42:55;;;;;;;0.73;0.50;;;;;;;;;;4918088;29;20193;-85
2020/12/21 12:45:20;;;;;;;4.90;0.50;;;;;;;;;;4918190;29;20115;-84
2020/12/21 12:47:45;;;;;;;2.53;0.52;;;;;;;;;;4916030;29;20026;-84
2020/12/21 12:50:10;;;;;;;2.15;0.75;;;;;;;;;;4940080;29;20362;-83
2020/12/21 12:52:37;;;;;;;3.13;0.70;;;;;;;;;;4930717;29;20054;-84
2020/12/21 12:55:02;;;;;;;3.30;0.50;;;;;;;;;;4935524;29;20019;-85
2020/12/21 12:57:27;;;;;;;8.60;0.82;;;;;;;;;;4935198;29;20419;-84
2020/12/21 12:59:52;;;;;;;1.48;0.60;;;;;;;;;;4913298;29;20031;-85
2020/12/21 13:02:17;;;;;;;1.83;0.57;;;;;;;;;;4937826;29;20046;-85
2020/12/21 13:04:43;;;;;;;1.92;0.52;;;;;;;;;;4940752;29;20498;-85
2020/12/21 13:07:08;;;;;;;2.17;0.60;;;;;;;;;;4939251;29;20053;-85
2020/12/21 13:09:33;;;;;;;2.85;1.00;;;;;;;;;;4917806;29;20030;-84
2020/12/21 13:11:58;;;;;;;8.02;0.90;;;;;;;;;;4935475;29;20463;-85
2020/12/21 13:14:24;;;;;;;1.83;0.55;;;;;;;;;;4917449;29;20024;-84
2020/12/21 13:16:49;;;;;;;1.42;0.70;;;;;;;;;;4905484;29;20510;-83
2020/12/21 13:19:14;;;;;;;5.18;0.70;;;;;;;;;;4931564;29;20028;-84
2020/12/21 13:21:39;;;;;;;2.42;0.70;;;;;;;;;;4916949;29;20016;-84
2020/12/21 13:24:05;;;;;;;7.05;0.80;;;;;;;;;;4937899;29;20023;-84
2020/12/21 13:26:30;;;;;;;2.90;0.57;;;;;;;;;;4934488;29;20019;-84
2020/12/21 13:28:55;;;;;;;0.90;0.30;;;;;;;;;;4935065;29;20055;-85
2020/12/21 13:31:21;;;;;;;2.60;0.70;;;;;;;;;;4925764;29;20455;-84
2020/12/21 13:33:47;;;;;;;1.83;0.65;;;;;;;;;;4916596;29;20032;-85
2020/12/21 13:36:13;;;;;;;1.90;0.52;;;;;;;;;;4924651;29;20030;-83
2020/12/21 13:38:39;;;;;;;4.25;1.38;;;;;;;;;;4919548;29;20466;-82
2020/12/21 13:41:07;;;;;;;6.25;0.77;;;;;;;;;;4926491;29;20034;-82
2020/12/21 13:43:32;;;;;;;3.40;0.68;;;;;;;;;;4907122;29;20498;-84
2020/12/21 13:45:58;;;;;;;3.70;0.85;;;;;;;;;;4913909;29;20023;-84
2020/12/21 13:48:23;;;;;;;2.45;0.50;;;;;;;;;;4917209;29;20024;-83
2020/12/21 13:50:48;;;;;;;3.08;0.63;;;;;;;;;;4915586;29;20039;-84
2020/12/21 13:53:13;;;;;;;1.98;0.63;;;;;;;;;;4916924;29;20059;-84
2020/12/21 13:55:38;;;;;;;1.90;0.90;;;;;;;;;;4926354;29;20053;-84
2020/12/21 13:58:04;;;;;;;1.58;0.57;;;;;;;;;;4917772;29;20019;-84
2020/12/21 14:00:29;;;;;;;5.55;0.98;;;;;;;;;;4931840;29;20064;-82
2020/12/21 14:02:54;;;;;;;3.78;0.80;;;;;;;;;;4919647;29;20031;-84
2020/12/21 14:05:19;;;;;;;1.33;0.55;;;;;;;;;;4914453;29;20024;-82
2020/12/21 14:07:44;;;;;;;4.15;0.70;;;;;;;;;;4916168;29;20045;-82
2020/12/21 14:10:10;;;;;;;4.32;0.80;;;;;;;;;;4929867;29;20035;-83
2020/12/21 14:12:36;;;;;;;2.05;0.73;;;;;;;;;;4918827;29;20059;-83
2020/12/21 14:15:01;;;;;;;0.05;0.05;;;;;;;;;;4934794;29;20026;-83
2020/12/21 14:17:26;;;;;;;0.80;0.35;;;;;;;;;;4925368;29;20020;-81
2020/12/21 14:19:51;;;;;;;1.17;0.50;;;;;;;;;;4913380;29;20055;-81
2020/12/21 14:22:17;;;;;;;2.85;0.73;;;;;;;;;;4924102;29;20543;-83
2020/12/21 14:24:42;;;;;;;1.10;0.50;;;;;;;;;;4915171;29;20111;-82
2020/12/21 14:27:07;;;;;;;4.72;1.13;;;;;;;;;;4926715;29;20391;-83
2020/12/21 14:29:33;;;;;;;1.13;0.50;;;;;;;;;;4931026;29;20535;-81